sensor_id;sensor_type;location;lat;lon;timestamp;P1;durP1;ratioP1;P2;durP2;ratioP2
6638;SDS011;3355;52.882;8.430;2023-05-10T00:02:04;6.20;;;5.60;;
6638;SDS011;3355;52.882;8.430;2023-05-10T00:04:31;7.57;;;6.87;;
6638;SDS011;3355;52.882;8.430;2023-05-10T00:06:59;7.83;;;7.07;;
6638;SDS011;3355;52.882;8.430;2023-05-10T00:09:26;7.00;;;6.30;;
6638;SDS011;3355;52.882;8.430;2023-05-10T00:11:53;7.50;;;6.80;;
6638;SDS011;3355;52.882;8.430;2023-05-10T00:14:20;8.00;;;7.20;;
6638;SDS011;3355;52.882;8.430;2023-05-10T00:16:46;6.73;;;6.13;;
6638;SDS011;3355;52.882;8.430;2023-05-10T00:19:13;6.47;;;5.87;;
6638;SDS011;3355;52.882;8.430;2023-05-10T00:21:39;7.70;;;6.40;;
6638;SDS011;3355;52.882;8.430;2023-05-10T00:24:08;8.13;;;7.33;;
6638;SDS011;3355;52.882;8.430;2023-05-10T00:26:36;7.80;;;6.87;;
6638;SDS011;3355;52.882;8.430;2023-05-10T00:29:03;7.57;;;6.87;;
6638;SDS011;3355;52.882;8.430;2023-05-10T00:31:29;8.17;;;7.27;;
6638;SDS011;3355;52.882;8.430;2023-05-10T00:33:56;8.70;;;7.27;;
6638;SDS011;3355;52.882;8.430;2023-05-10T00:36:23;8.93;;;7.73;;
6638;SDS011;3355;52.882;8.430;2023-05-10T00:38:50;8.20;;;7.33;;
6638;SDS011;3355;52.882;8.430;2023-05-10T00:41:18;9.77;;;8.77;;
6638;SDS011;3355;52.882;8.430;2023-05-10T00:43:46;9.07;;;8.17;;
6638;SDS011;3355;52.882;8.430;2023-05-10T00:46:13;8.80;;;7.90;;
6638;SDS011;3355;52.882;8.430;2023-05-10T00:48:40;10.50;;;9.50;;
6638;SDS011;3355;52.882;8.430;2023-05-10T00:51:07;9.10;;;8.20;;
6638;SDS011;3355;52.882;8.430;2023-05-10T00:53:34;10.80;;;9.10;;
6638;SDS011;3355;52.882;8.430;2023-05-10T00:56:01;10.03;;;9.03;;
6638;SDS011;3355;52.882;8.430;2023-05-10T00:58:30;9.73;;;8.73;;
6638;SDS011;3355;52.882;8.430;2023-05-10T01:00:56;9.17;;;8.30;;
6638;SDS011;3355;52.882;8.430;2023-05-10T01:03:24;9.37;;;8.37;;
6638;SDS011;3355;52.882;8.430;2023-05-10T01:05:52;10.70;;;9.70;;
6638;SDS011;3355;52.882;8.430;2023-05-10T01:08:20;9.57;;;8.57;;
6638;SDS011;3355;52.882;8.430;2023-05-10T01:10:47;9.07;;;8.17;;
6638;SDS011;3355;52.882;8.430;2023-05-10T01:13:16;11.20;;;9.33;;
6638;SDS011;3355;52.882;8.430;2023-05-10T01:15:48;9.80;;;8.90;;
6638;SDS011;3355;52.882;8.430;2023-05-10T01:18:14;11.13;;;10.03;;
6638;SDS011;3355;52.882;8.430;2023-05-10T01:20:43;9.67;;;8.63;;
6638;SDS011;3355;52.882;8.430;2023-05-10T01:23:23;10.27;;;9.27;;
6638;SDS011;3355;52.882;8.430;2023-05-10T01:26:07;9.53;;;8.53;;
6638;SDS011;3355;52.882;8.430;2023-05-10T01:34:46;13.47;;;11.90;;
6638;SDS011;3355;52.882;8.430;2023-05-10T01:37:15;12.57;;;11.30;;
6638;SDS011;3355;52.882;8.430;2023-05-10T01:39:47;12.03;;;10.60;;
6638;SDS011;3355;52.882;8.430;2023-05-10T01:42:17;11.60;;;10.53;;
6638;SDS011;3355;52.882;8.430;2023-05-10T01:44:49;12.33;;;11.07;;
6638;SDS011;3355;52.882;8.430;2023-05-10T01:47:27;14.00;;;12.07;;
6638;SDS011;3355;52.882;8.430;2023-05-10T01:49:58;11.37;;;10.13;;
6638;SDS011;3355;52.882;8.430;2023-05-10T01:52:30;13.00;;;11.67;;
6638;SDS011;3355;52.882;8.430;2023-05-10T01:55:00;12.97;;;11.30;;
6638;SDS011;3355;52.882;8.430;2023-05-10T01:57:32;11.50;;;10.20;;
6638;SDS011;3355;52.882;8.430;2023-05-10T02:00:00;13.27;;;11.80;;
6638;SDS011;3355;52.882;8.430;2023-05-10T02:02:29;11.27;;;10.10;;
6638;SDS011;3355;52.882;8.430;2023-05-10T02:04:56;15.37;;;12.40;;
6638;SDS011;3355;52.882;8.430;2023-05-10T02:07:24;11.90;;;10.70;;
6638;SDS011;3355;52.882;8.430;2023-05-10T02:09:51;13.27;;;10.70;;
6638;SDS011;3355;52.882;8.430;2023-05-10T02:12:18;11.53;;;10.43;;
6638;SDS011;3355;52.882;8.430;2023-05-10T02:14:45;10.77;;;9.67;;
6638;SDS011;3355;52.882;8.430;2023-05-10T02:17:13;13.40;;;10.90;;
6638;SDS011;3355;52.882;8.430;2023-05-10T02:19:42;11.93;;;10.73;;
6638;SDS011;3355;52.882;8.430;2023-05-10T02:22:10;12.77;;;10.63;;
6638;SDS011;3355;52.882;8.430;2023-05-10T02:24:38;12.37;;;10.40;;
6638;SDS011;3355;52.882;8.430;2023-05-10T02:27:05;13.17;;;11.77;;
6638;SDS011;3355;52.882;8.430;2023-05-10T02:29:32;11.50;;;10.30;;
6638;SDS011;3355;52.882;8.430;2023-05-10T02:31:59;11.03;;;9.93;;
6638;SDS011;3355;52.882;8.430;2023-05-10T02:34:26;13.10;;;11.40;;
6638;SDS011;3355;52.882;8.430;2023-05-10T02:36:55;11.57;;;10.37;;
6638;SDS011;3355;52.882;8.430;2023-05-10T02:39:22;11.00;;;9.90;;
6638;SDS011;3355;52.882;8.430;2023-05-10T02:41:50;11.50;;;10.40;;
6638;SDS011;3355;52.882;8.430;2023-05-10T02:44:18;10.80;;;9.80;;
6638;SDS011;3355;52.882;8.430;2023-05-10T02:46:45;9.57;;;8.67;;
6638;SDS011;3355;52.882;8.430;2023-05-10T02:49:13;10.77;;;8.37;;
6638;SDS011;3355;52.882;8.430;2023-05-10T02:51:41;9.33;;;8.43;;
6638;SDS011;3355;52.882;8.430;2023-05-10T02:54:11;9.47;;;8.30;;
6638;SDS011;3355;52.882;8.430;2023-05-10T02:56:42;8.00;;;7.20;;
6638;SDS011;3355;52.882;8.430;2023-05-10T02:59:13;9.67;;;8.70;;
6638;SDS011;3355;52.882;8.430;2023-05-10T03:01:40;10.00;;;7.30;;
6638;SDS011;3355;52.882;8.430;2023-05-10T03:04:07;8.63;;;7.60;;
6638;SDS011;3355;52.882;8.430;2023-05-10T03:06:34;9.07;;;8.17;;
6638;SDS011;3355;52.882;8.430;2023-05-10T03:09:01;9.60;;;8.33;;
6638;SDS011;3355;52.882;8.430;2023-05-10T03:11:32;11.03;;;9.23;;
6638;SDS011;3355;52.882;8.430;2023-05-10T03:14:08;11.53;;;9.00;;
6638;SDS011;3355;52.882;8.430;2023-05-10T03:16:41;10.27;;;9.27;;
6638;SDS011;3355;52.882;8.430;2023-05-10T03:19:12;10.70;;;9.70;;
6638;SDS011;3355;52.882;8.430;2023-05-10T03:21:44;10.23;;;9.20;;
6638;SDS011;3355;52.882;8.430;2023-05-10T03:24:15;10.73;;;9.70;;
6638;SDS011;3355;52.882;8.430;2023-05-10T03:26:44;10.23;;;8.87;;
6638;SDS011;3355;52.882;8.430;2023-05-10T03:29:12;11.33;;;9.73;;
6638;SDS011;3355;52.882;8.430;2023-05-10T03:31:39;10.90;;;9.80;;
6638;SDS011;3355;52.882;8.430;2023-05-10T03:34:06;10.90;;;9.90;;
6638;SDS011;3355;52.882;8.430;2023-05-10T03:36:33;12.43;;;9.63;;
6638;SDS011;3355;52.882;8.430;2023-05-10T03:39:00;10.20;;;9.10;;
6638;SDS011;3355;52.882;8.430;2023-05-10T03:41:27;12.83;;;9.77;;
6638;SDS011;3355;52.882;8.430;2023-05-10T03:43:55;10.60;;;9.03;;
6638;SDS011;3355;52.882;8.430;2023-05-10T03:46:22;10.10;;;9.20;;
6638;SDS011;3355;52.882;8.430;2023-05-10T03:48:48;11.43;;;10.10;;
6638;SDS011;3355;52.882;8.430;2023-05-10T03:51:15;12.37;;;11.17;;
6638;SDS011;3355;52.882;8.430;2023-05-10T03:53:42;11.93;;;10.73;;
6638;SDS011;3355;52.882;8.430;2023-05-10T03:56:08;9.60;;;8.70;;
6638;SDS011;3355;52.882;8.430;2023-05-10T03:58:35;9.40;;;8.00;;
6638;SDS011;3355;52.882;8.430;2023-05-10T04:01:03;8.83;;;7.70;;
6638;SDS011;3355;52.882;8.430;2023-05-10T04:03:30;7.70;;;6.90;;
6638;SDS011;3355;52.882;8.430;2023-05-10T04:06:00;8.63;;;7.83;;
6638;SDS011;3355;52.882;8.430;2023-05-10T04:08:27;8.60;;;7.60;;
6638;SDS011;3355;52.882;8.430;2023-05-10T04:10:54;9.60;;;6.97;;
6638;SDS011;3355;52.882;8.430;2023-05-10T04:13:21;7.90;;;6.77;;
6638;SDS011;3355;52.882;8.430;2023-05-10T04:15:47;6.37;;;5.77;;
6638;SDS011;3355;52.882;8.430;2023-05-10T04:18:16;6.70;;;6.00;;
6638;SDS011;3355;52.882;8.430;2023-05-10T04:20:42;4.90;;;4.30;;
6638;SDS011;3355;52.882;8.430;2023-05-10T04:23:09;5.03;;;4.40;;
6638;SDS011;3355;52.882;8.430;2023-05-10T04:25:36;4.17;;;3.47;;
6638;SDS011;3355;52.882;8.430;2023-05-10T04:28:03;4.20;;;2.50;;
6638;SDS011;3355;52.882;8.430;2023-05-10T04:30:30;4.53;;;2.37;;
6638;SDS011;3355;52.882;8.430;2023-05-10T04:32:57;2.57;;;2.00;;
6638;SDS011;3355;52.882;8.430;2023-05-10T04:35:25;2.30;;;1.80;;
6638;SDS011;3355;52.882;8.430;2023-05-10T04:37:54;2.50;;;1.90;;
6638;SDS011;3355;52.882;8.430;2023-05-10T04:40:21;3.57;;;1.80;;
6638;SDS011;3355;52.882;8.430;2023-05-10T04:42:48;2.23;;;1.50;;
6638;SDS011;3355;52.882;8.430;2023-05-10T04:45:14;4.43;;;2.10;;
6638;SDS011;3355;52.882;8.430;2023-05-10T04:47:42;2.53;;;1.90;;
6638;SDS011;3355;52.882;8.430;2023-05-10T04:50:09;3.00;;;2.20;;
6638;SDS011;3355;52.882;8.430;2023-05-10T04:52:37;2.50;;;1.70;;
6638;SDS011;3355;52.882;8.430;2023-05-10T04:55:04;2.33;;;1.90;;
6638;SDS011;3355;52.882;8.430;2023-05-10T04:57:32;2.73;;;2.30;;
6638;SDS011;3355;52.882;8.430;2023-05-10T04:59:59;3.20;;;1.77;;
6638;SDS011;3355;52.882;8.430;2023-05-10T05:02:26;3.93;;;2.27;;
6638;SDS011;3355;52.882;8.430;2023-05-10T05:04:55;3.20;;;2.80;;
6638;SDS011;3355;52.882;8.430;2023-05-10T05:07:22;2.60;;;2.00;;
6638;SDS011;3355;52.882;8.430;2023-05-10T05:09:52;2.73;;;2.40;;
6638;SDS011;3355;52.882;8.430;2023-05-10T05:12:18;2.53;;;2.00;;
6638;SDS011;3355;52.882;8.430;2023-05-10T05:14:45;3.50;;;2.50;;
6638;SDS011;3355;52.882;8.430;2023-05-10T05:17:12;3.13;;;2.57;;
6638;SDS011;3355;52.882;8.430;2023-05-10T05:19:38;2.70;;;2.13;;
6638;SDS011;3355;52.882;8.430;2023-05-10T05:22:06;2.83;;;2.10;;
6638;SDS011;3355;52.882;8.430;2023-05-10T05:24:34;3.53;;;2.07;;
6638;SDS011;3355;52.882;8.430;2023-05-10T05:27:04;2.53;;;2.00;;
6638;SDS011;3355;52.882;8.430;2023-05-10T05:29:32;2.33;;;1.63;;
6638;SDS011;3355;52.882;8.430;2023-05-10T05:31:59;2.13;;;1.70;;
6638;SDS011;3355;52.882;8.430;2023-05-10T05:34:26;3.30;;;1.80;;
6638;SDS011;3355;52.882;8.430;2023-05-10T05:36:55;2.43;;;2.10;;
6638;SDS011;3355;52.882;8.430;2023-05-10T05:39:21;3.10;;;2.23;;
6638;SDS011;3355;52.882;8.430;2023-05-10T05:41:48;2.60;;;2.17;;
6638;SDS011;3355;52.882;8.430;2023-05-10T05:44:16;2.53;;;1.90;;
6638;SDS011;3355;52.882;8.430;2023-05-10T05:46:43;3.30;;;2.60;;
6638;SDS011;3355;52.882;8.430;2023-05-10T05:49:10;3.53;;;2.70;;
6638;SDS011;3355;52.882;8.430;2023-05-10T05:51:37;3.00;;;2.30;;
6638;SDS011;3355;52.882;8.430;2023-05-10T05:54:03;2.90;;;2.40;;
6638;SDS011;3355;52.882;8.430;2023-05-10T05:56:31;3.13;;;2.70;;
6638;SDS011;3355;52.882;8.430;2023-05-10T05:58:58;3.67;;;2.80;;
6638;SDS011;3355;52.882;8.430;2023-05-10T06:01:26;4.10;;;3.30;;
6638;SDS011;3355;52.882;8.430;2023-05-10T06:03:54;3.80;;;3.20;;
6638;SDS011;3355;52.882;8.430;2023-05-10T06:06:21;4.27;;;3.53;;
6638;SDS011;3355;52.882;8.430;2023-05-10T06:08:47;3.43;;;2.90;;
6638;SDS011;3355;52.882;8.430;2023-05-10T06:11:14;4.17;;;3.70;;
6638;SDS011;3355;52.882;8.430;2023-05-10T06:13:43;4.27;;;3.73;;
6638;SDS011;3355;52.882;8.430;2023-05-10T06:16:10;4.70;;;3.87;;
6638;SDS011;3355;52.882;8.430;2023-05-10T06:18:38;4.40;;;3.60;;
6638;SDS011;3355;52.882;8.430;2023-05-10T06:21:05;6.00;;;4.30;;
6638;SDS011;3355;52.882;8.430;2023-05-10T06:23:32;6.07;;;4.73;;
6638;SDS011;3355;52.882;8.430;2023-05-10T06:25:58;4.97;;;4.47;;
6638;SDS011;3355;52.882;8.430;2023-05-10T06:28:25;7.10;;;4.83;;
6638;SDS011;3355;52.882;8.430;2023-05-10T06:30:52;4.83;;;3.97;;
6638;SDS011;3355;52.882;8.430;2023-05-10T06:33:19;4.53;;;3.83;;
6638;SDS011;3355;52.882;8.430;2023-05-10T06:35:47;5.87;;;4.50;;
6638;SDS011;3355;52.882;8.430;2023-05-10T06:38:14;3.80;;;3.37;;
6638;SDS011;3355;52.882;8.430;2023-05-10T06:40:41;4.30;;;3.80;;
6638;SDS011;3355;52.882;8.430;2023-05-10T06:43:08;7.23;;;4.33;;
6638;SDS011;3355;52.882;8.430;2023-05-10T06:45:35;4.73;;;3.70;;
6638;SDS011;3355;52.882;8.430;2023-05-10T06:48:03;5.33;;;3.97;;
6638;SDS011;3355;52.882;8.430;2023-05-10T06:50:29;4.70;;;3.97;;
6638;SDS011;3355;52.882;8.430;2023-05-10T06:52:57;4.90;;;3.30;;
6638;SDS011;3355;52.882;8.430;2023-05-10T06:55:24;4.27;;;3.20;;
6638;SDS011;3355;52.882;8.430;2023-05-10T06:57:51;4.63;;;3.57;;
6638;SDS011;3355;52.882;8.430;2023-05-10T07:00:18;4.50;;;4.10;;
6638;SDS011;3355;52.882;8.430;2023-05-10T07:02:45;4.70;;;3.80;;
6638;SDS011;3355;52.882;8.430;2023-05-10T07:05:13;6.00;;;3.90;;
6638;SDS011;3355;52.882;8.430;2023-05-10T07:07:40;3.53;;;3.23;;
6638;SDS011;3355;52.882;8.430;2023-05-10T07:10:11;4.63;;;3.73;;
6638;SDS011;3355;52.882;8.430;2023-05-10T07:12:37;6.80;;;3.70;;
6638;SDS011;3355;52.882;8.430;2023-05-10T07:15:05;5.80;;;4.07;;
6638;SDS011;3355;52.882;8.430;2023-05-10T07:17:32;5.10;;;4.20;;
6638;SDS011;3355;52.882;8.430;2023-05-10T07:19:59;4.77;;;4.10;;
6638;SDS011;3355;52.882;8.430;2023-05-10T07:22:27;4.37;;;3.80;;
6638;SDS011;3355;52.882;8.430;2023-05-10T07:24:54;4.90;;;4.40;;
6638;SDS011;3355;52.882;8.430;2023-05-10T07:27:25;3.97;;;3.57;;
6638;SDS011;3355;52.882;8.430;2023-05-10T07:29:51;4.10;;;3.70;;
6638;SDS011;3355;52.882;8.430;2023-05-10T07:32:19;4.33;;;3.83;;
6638;SDS011;3355;52.882;8.430;2023-05-10T07:34:46;4.53;;;3.97;;
6638;SDS011;3355;52.882;8.430;2023-05-10T07:37:13;5.00;;;4.50;;
6638;SDS011;3355;52.882;8.430;2023-05-10T07:39:40;5.07;;;4.57;;
6638;SDS011;3355;52.882;8.430;2023-05-10T07:42:08;6.10;;;4.80;;
6638;SDS011;3355;52.882;8.430;2023-05-10T07:44:36;5.43;;;4.87;;
6638;SDS011;3355;52.882;8.430;2023-05-10T07:47:04;5.40;;;4.40;;
6638;SDS011;3355;52.882;8.430;2023-05-10T07:49:30;5.10;;;4.60;;
6638;SDS011;3355;52.882;8.430;2023-05-10T07:51:57;4.93;;;4.43;;
6638;SDS011;3355;52.882;8.430;2023-05-10T07:54:24;5.10;;;4.60;;
6638;SDS011;3355;52.882;8.430;2023-05-10T07:56:51;5.57;;;4.87;;
6638;SDS011;3355;52.882;8.430;2023-05-10T07:59:18;5.47;;;4.97;;
6638;SDS011;3355;52.882;8.430;2023-05-10T08:01:46;6.40;;;4.50;;
6638;SDS011;3355;52.882;8.430;2023-05-10T08:04:13;4.70;;;4.17;;
6638;SDS011;3355;52.882;8.430;2023-05-10T08:06:40;7.60;;;5.43;;
6638;SDS011;3355;52.882;8.430;2023-05-10T08:09:08;5.73;;;5.13;;
6638;SDS011;3355;52.882;8.430;2023-05-10T08:11:35;5.43;;;4.90;;
6638;SDS011;3355;52.882;8.430;2023-05-10T08:14:02;6.03;;;4.73;;
6638;SDS011;3355;52.882;8.430;2023-05-10T08:16:29;5.73;;;4.63;;
6638;SDS011;3355;52.882;8.430;2023-05-10T08:18:58;5.57;;;4.97;;
6638;SDS011;3355;52.882;8.430;2023-05-10T08:21:25;6.50;;;5.53;;
6638;SDS011;3355;52.882;8.430;2023-05-10T08:23:52;6.70;;;6.10;;
6638;SDS011;3355;52.882;8.430;2023-05-10T08:26:19;6.43;;;5.80;;
6638;SDS011;3355;52.882;8.430;2023-05-10T08:28:46;6.90;;;5.90;;
6638;SDS011;3355;52.882;8.430;2023-05-10T08:31:13;6.37;;;5.07;;
6638;SDS011;3355;52.882;8.430;2023-05-10T08:33:40;6.97;;;6.10;;
6638;SDS011;3355;52.882;8.430;2023-05-10T08:36:09;5.23;;;4.73;;
6638;SDS011;3355;52.882;8.430;2023-05-10T08:38:36;6.90;;;5.80;;
6638;SDS011;3355;52.882;8.430;2023-05-10T08:41:03;8.57;;;5.77;;
6638;SDS011;3355;52.882;8.430;2023-05-10T08:43:31;6.33;;;5.43;;
6638;SDS011;3355;52.882;8.430;2023-05-10T08:45:59;10.17;;;5.97;;
6638;SDS011;3355;52.882;8.430;2023-05-10T08:48:27;7.17;;;5.10;;
6638;SDS011;3355;52.882;8.430;2023-05-10T08:50:55;6.50;;;5.90;;
6638;SDS011;3355;52.882;8.430;2023-05-10T08:53:26;6.80;;;6.07;;
6638;SDS011;3355;52.882;8.430;2023-05-10T08:55:55;5.87;;;5.23;;
6638;SDS011;3355;52.882;8.430;2023-05-10T08:58:21;6.60;;;6.00;;
6638;SDS011;3355;52.882;8.430;2023-05-10T09:00:48;8.70;;;5.23;;
6638;SDS011;3355;52.882;8.430;2023-05-10T09:03:17;7.30;;;5.63;;
6638;SDS011;3355;52.882;8.430;2023-05-10T09:05:44;6.53;;;5.73;;
6638;SDS011;3355;52.882;8.430;2023-05-10T09:08:11;5.70;;;5.10;;
6638;SDS011;3355;52.882;8.430;2023-05-10T09:10:39;5.67;;;4.80;;
6638;SDS011;3355;52.882;8.430;2023-05-10T09:13:08;8.50;;;5.60;;
6638;SDS011;3355;52.882;8.430;2023-05-10T09:15:37;6.80;;;5.33;;
6638;SDS011;3355;52.882;8.430;2023-05-10T09:18:04;5.90;;;5.17;;
6638;SDS011;3355;52.882;8.430;2023-05-10T09:20:30;8.17;;;5.27;;
6638;SDS011;3355;52.882;8.430;2023-05-10T09:22:57;5.83;;;4.23;;
6638;SDS011;3355;52.882;8.430;2023-05-10T09:25:23;4.40;;;3.83;;
6638;SDS011;3355;52.882;8.430;2023-05-10T09:27:54;6.07;;;4.30;;
6638;SDS011;3355;52.882;8.430;2023-05-10T09:30:23;9.80;;;4.20;;
6638;SDS011;3355;52.882;8.430;2023-05-10T09:32:51;4.97;;;4.03;;
6638;SDS011;3355;52.882;8.430;2023-05-10T09:35:19;6.63;;;4.00;;
6638;SDS011;3355;52.882;8.430;2023-05-10T09:37:48;5.90;;;3.83;;
6638;SDS011;3355;52.882;8.430;2023-05-10T09:40:16;5.17;;;4.30;;
6638;SDS011;3355;52.882;8.430;2023-05-10T09:42:50;6.50;;;3.57;;
6638;SDS011;3355;52.882;8.430;2023-05-10T09:45:19;6.20;;;3.77;;
6638;SDS011;3355;52.882;8.430;2023-05-10T09:47:47;4.77;;;3.37;;
6638;SDS011;3355;52.882;8.430;2023-05-10T09:50:13;4.50;;;4.10;;
6638;SDS011;3355;52.882;8.430;2023-05-10T09:52:47;5.00;;;3.80;;
6638;SDS011;3355;52.882;8.430;2023-05-10T09:55:15;6.93;;;3.73;;
6638;SDS011;3355;52.882;8.430;2023-05-10T09:57:42;5.70;;;4.50;;
6638;SDS011;3355;52.882;8.430;2023-05-10T10:00:11;4.30;;;3.90;;
6638;SDS011;3355;52.882;8.430;2023-05-10T10:05:11;4.60;;;4.10;;
6638;SDS011;3355;52.882;8.430;2023-05-10T10:07:38;4.80;;;3.60;;
6638;SDS011;3355;52.882;8.430;2023-05-10T10:10:05;4.50;;;3.93;;
6638;SDS011;3355;52.882;8.430;2023-05-10T10:12:36;5.00;;;3.33;;
6638;SDS011;3355;52.882;8.430;2023-05-10T10:15:03;4.17;;;3.20;;
6638;SDS011;3355;52.882;8.430;2023-05-10T10:17:33;4.57;;;3.20;;
6638;SDS011;3355;52.882;8.430;2023-05-10T10:20:02;3.40;;;2.83;;
6638;SDS011;3355;52.882;8.430;2023-05-10T10:22:29;4.43;;;3.17;;
6638;SDS011;3355;52.882;8.430;2023-05-10T10:24:55;4.77;;;3.10;;
6638;SDS011;3355;52.882;8.430;2023-05-10T10:27:23;5.90;;;3.80;;
6638;SDS011;3355;52.882;8.430;2023-05-10T10:29:58;3.83;;;3.37;;
6638;SDS011;3355;52.882;8.430;2023-05-10T10:32:33;3.90;;;2.93;;
6638;SDS011;3355;52.882;8.430;2023-05-10T10:35:20;3.40;;;2.70;;
6638;SDS011;3355;52.882;8.430;2023-05-10T10:37:47;3.70;;;3.30;;
6638;SDS011;3355;52.882;8.430;2023-05-10T10:40:24;4.30;;;2.40;;
6638;SDS011;3355;52.882;8.430;2023-05-10T10:42:51;3.77;;;2.70;;
6638;SDS011;3355;52.882;8.430;2023-05-10T10:45:18;3.43;;;2.57;;
6638;SDS011;3355;52.882;8.430;2023-05-10T10:47:47;2.93;;;2.60;;
6638;SDS011;3355;52.882;8.430;2023-05-10T10:50:14;3.63;;;2.20;;
6638;SDS011;3355;52.882;8.430;2023-05-10T10:52:41;2.77;;;1.97;;
6638;SDS011;3355;52.882;8.430;2023-05-10T10:55:09;3.20;;;1.73;;
6638;SDS011;3355;52.882;8.430;2023-05-10T10:57:47;2.53;;;1.97;;
6638;SDS011;3355;52.882;8.430;2023-05-10T11:00:25;2.60;;;2.40;;
6638;SDS011;3355;52.882;8.430;2023-05-10T11:02:55;2.73;;;2.00;;
6638;SDS011;3355;52.882;8.430;2023-05-10T11:08:06;3.83;;;2.50;;
6638;SDS011;3355;52.882;8.430;2023-05-10T11:10:35;3.30;;;2.53;;
6638;SDS011;3355;52.882;8.430;2023-05-10T11:13:02;3.50;;;3.10;;
6638;SDS011;3355;52.882;8.430;2023-05-10T11:15:30;3.70;;;3.20;;
6638;SDS011;3355;52.882;8.430;2023-05-10T11:17:59;2.53;;;2.30;;
6638;SDS011;3355;52.882;8.430;2023-05-10T11:20:27;3.07;;;2.77;;
6638;SDS011;3355;52.882;8.430;2023-05-10T11:22:58;4.20;;;2.27;;
6638;SDS011;3355;52.882;8.430;2023-05-10T11:25:40;2.60;;;1.70;;
6638;SDS011;3355;52.882;8.430;2023-05-10T11:28:07;1.67;;;1.13;;
6638;SDS011;3355;52.882;8.430;2023-05-10T11:30:34;1.93;;;1.43;;
6638;SDS011;3355;52.882;8.430;2023-05-10T11:33:02;2.10;;;1.63;;
6638;SDS011;3355;52.882;8.430;2023-05-10T11:35:28;1.80;;;1.20;;
6638;SDS011;3355;52.882;8.430;2023-05-10T11:37:55;1.50;;;1.30;;
6638;SDS011;3355;52.882;8.430;2023-05-10T11:40:21;1.47;;;0.87;;
6638;SDS011;3355;52.882;8.430;2023-05-10T11:42:49;1.33;;;0.90;;
6638;SDS011;3355;52.882;8.430;2023-05-10T11:45:16;1.20;;;0.77;;
6638;SDS011;3355;52.882;8.430;2023-05-10T11:47:42;1.60;;;1.03;;
6638;SDS011;3355;52.882;8.430;2023-05-10T11:50:10;2.83;;;1.00;;
6638;SDS011;3355;52.882;8.430;2023-05-10T11:52:37;2.50;;;0.80;;
6638;SDS011;3355;52.882;8.430;2023-05-10T11:55:04;1.13;;;0.57;;
6638;SDS011;3355;52.882;8.430;2023-05-10T11:57:31;1.30;;;1.03;;
6638;SDS011;3355;52.882;8.430;2023-05-10T11:59:58;2.83;;;0.90;;
6638;SDS011;3355;52.882;8.430;2023-05-10T12:02:24;1.20;;;0.80;;
6638;SDS011;3355;52.882;8.430;2023-05-10T12:04:51;1.30;;;1.00;;
6638;SDS011;3355;52.882;8.430;2023-05-10T12:07:19;1.33;;;0.93;;
6638;SDS011;3355;52.882;8.430;2023-05-10T12:12:37;1.73;;;1.00;;
6638;SDS011;3355;52.882;8.430;2023-05-10T12:15:05;1.50;;;1.10;;
6638;SDS011;3355;52.882;8.430;2023-05-10T12:17:32;1.40;;;1.00;;
6638;SDS011;3355;52.882;8.430;2023-05-10T12:19:59;2.20;;;1.20;;
6638;SDS011;3355;52.882;8.430;2023-05-10T12:22:40;1.63;;;1.27;;
6638;SDS011;3355;52.882;8.430;2023-05-10T12:25:08;1.70;;;1.40;;
6638;SDS011;3355;52.882;8.430;2023-05-10T12:27:35;2.40;;;2.20;;
6638;SDS011;3355;52.882;8.430;2023-05-10T12:30:02;2.90;;;2.50;;
6638;SDS011;3355;52.882;8.430;2023-05-10T12:32:38;4.07;;;3.67;;
6638;SDS011;3355;52.882;8.430;2023-05-10T12:35:06;2.70;;;2.50;;
6638;SDS011;3355;52.882;8.430;2023-05-10T12:37:33;2.60;;;2.23;;
6638;SDS011;3355;52.882;8.430;2023-05-10T12:40:02;2.07;;;1.80;;
6638;SDS011;3355;52.882;8.430;2023-05-10T12:42:30;2.67;;;2.33;;
6638;SDS011;3355;52.882;8.430;2023-05-10T12:44:56;2.10;;;1.90;;
6638;SDS011;3355;52.882;8.430;2023-05-10T12:47:23;2.60;;;2.33;;
6638;SDS011;3355;52.882;8.430;2023-05-10T12:49:49;4.93;;;2.50;;
6638;SDS011;3355;52.882;8.430;2023-05-10T12:52:16;4.37;;;3.97;;
6638;SDS011;3355;52.882;8.430;2023-05-10T12:54:43;3.93;;;3.63;;
6638;SDS011;3355;52.882;8.430;2023-05-10T12:57:12;4.00;;;3.70;;
6638;SDS011;3355;52.882;8.430;2023-05-10T12:59:39;3.20;;;2.90;;
6638;SDS011;3355;52.882;8.430;2023-05-10T13:02:05;3.00;;;2.70;;
6638;SDS011;3355;52.882;8.430;2023-05-10T13:04:32;4.27;;;3.40;;
6638;SDS011;3355;52.882;8.430;2023-05-10T13:06:59;7.77;;;4.63;;
6638;SDS011;3355;52.882;8.430;2023-05-10T13:09:25;7.20;;;6.13;;
6638;SDS011;3355;52.882;8.430;2023-05-10T13:11:54;10.67;;;9.73;;
6638;SDS011;3355;52.882;8.430;2023-05-10T13:14:22;10.23;;;9.43;;
6638;SDS011;3355;52.882;8.430;2023-05-10T13:16:48;3.77;;;3.47;;
6638;SDS011;3355;52.882;8.430;2023-05-10T13:19:15;3.20;;;2.90;;
6638;SDS011;3355;52.882;8.430;2023-05-10T13:21:42;4.50;;;3.23;;
6638;SDS011;3355;52.882;8.430;2023-05-10T13:24:09;2.50;;;2.30;;
6638;SDS011;3355;52.882;8.430;2023-05-10T13:26:36;2.80;;;2.50;;
6638;SDS011;3355;52.882;8.430;2023-05-10T13:29:02;2.30;;;1.70;;
6638;SDS011;3355;52.882;8.430;2023-05-10T13:31:30;2.20;;;2.00;;
6638;SDS011;3355;52.882;8.430;2023-05-10T13:33:57;2.70;;;2.50;;
6638;SDS011;3355;52.882;8.430;2023-05-10T13:36:23;2.40;;;1.80;;
6638;SDS011;3355;52.882;8.430;2023-05-10T13:38:50;2.30;;;2.10;;
6638;SDS011;3355;52.882;8.430;2023-05-10T13:41:16;2.90;;;2.10;;
6638;SDS011;3355;52.882;8.430;2023-05-10T13:43:43;2.23;;;1.90;;
6638;SDS011;3355;52.882;8.430;2023-05-10T13:46:09;2.17;;;1.83;;
6638;SDS011;3355;52.882;8.430;2023-05-10T13:48:37;3.10;;;1.77;;
6638;SDS011;3355;52.882;8.430;2023-05-10T13:51:03;1.80;;;1.50;;
6638;SDS011;3355;52.882;8.430;2023-05-10T13:53:30;1.80;;;1.47;;
6638;SDS011;3355;52.882;8.430;2023-05-10T13:55:56;1.87;;;1.37;;
6638;SDS011;3355;52.882;8.430;2023-05-10T13:58:23;2.40;;;1.27;;
6638;SDS011;3355;52.882;8.430;2023-05-10T14:00:50;1.50;;;1.33;;
6638;SDS011;3355;52.882;8.430;2023-05-10T14:03:16;1.70;;;1.53;;
6638;SDS011;3355;52.882;8.430;2023-05-10T14:05:44;1.50;;;1.20;;
6638;SDS011;3355;52.882;8.430;2023-05-10T14:08:12;1.70;;;1.57;;
6638;SDS011;3355;52.882;8.430;2023-05-10T14:10:39;1.90;;;1.37;;
6638;SDS011;3355;52.882;8.430;2023-05-10T14:13:06;2.07;;;1.50;;
6638;SDS011;3355;52.882;8.430;2023-05-10T14:15:32;1.80;;;1.20;;
6638;SDS011;3355;52.882;8.430;2023-05-10T14:17:59;2.50;;;1.63;;
6638;SDS011;3355;52.882;8.430;2023-05-10T14:20:26;4.07;;;2.00;;
6638;SDS011;3355;52.882;8.430;2023-05-10T14:22:53;2.20;;;1.57;;
6638;SDS011;3355;52.882;8.430;2023-05-10T14:25:20;2.60;;;2.20;;
6638;SDS011;3355;52.882;8.430;2023-05-10T14:27:47;4.37;;;1.90;;
6638;SDS011;3355;52.882;8.430;2023-05-10T14:30:13;4.50;;;3.90;;
6638;SDS011;3355;52.882;8.430;2023-05-10T14:32:40;2.57;;;2.30;;
6638;SDS011;3355;52.882;8.430;2023-05-10T14:35:07;2.80;;;2.10;;
6638;SDS011;3355;52.882;8.430;2023-05-10T14:37:34;3.70;;;2.10;;
6638;SDS011;3355;52.882;8.430;2023-05-10T14:40:03;4.03;;;3.60;;
6638;SDS011;3355;52.882;8.430;2023-05-10T14:42:31;5.90;;;5.30;;
6638;SDS011;3355;52.882;8.430;2023-05-10T14:44:58;3.33;;;2.73;;
6638;SDS011;3355;52.882;8.430;2023-05-10T14:47:24;3.10;;;2.70;;
6638;SDS011;3355;52.882;8.430;2023-05-10T14:49:50;3.30;;;2.53;;
6638;SDS011;3355;52.882;8.430;2023-05-10T14:52:17;4.60;;;3.30;;
6638;SDS011;3355;52.882;8.430;2023-05-10T14:54:44;3.50;;;3.20;;
6638;SDS011;3355;52.882;8.430;2023-05-10T14:57:11;8.63;;;7.57;;
6638;SDS011;3355;52.882;8.430;2023-05-10T14:59:38;3.83;;;3.43;;
6638;SDS011;3355;52.882;8.430;2023-05-10T15:02:05;7.03;;;5.40;;
6638;SDS011;3355;52.882;8.430;2023-05-10T15:04:33;5.97;;;4.90;;
6638;SDS011;3355;52.882;8.430;2023-05-10T15:06:59;4.83;;;3.90;;
6638;SDS011;3355;52.882;8.430;2023-05-10T15:09:26;3.17;;;2.63;;
6638;SDS011;3355;52.882;8.430;2023-05-10T15:11:53;3.30;;;3.00;;
6638;SDS011;3355;52.882;8.430;2023-05-10T15:14:21;3.77;;;3.00;;
6638;SDS011;3355;52.882;8.430;2023-05-10T15:16:47;8.70;;;5.27;;
6638;SDS011;3355;52.882;8.430;2023-05-10T15:19:14;4.30;;;3.27;;
6638;SDS011;3355;52.882;8.430;2023-05-10T15:21:41;3.80;;;3.30;;
6638;SDS011;3355;52.882;8.430;2023-05-10T15:24:09;8.10;;;6.93;;
6638;SDS011;3355;52.882;8.430;2023-05-10T15:26:35;17.60;;;13.57;;
6638;SDS011;3355;52.882;8.430;2023-05-10T15:29:02;4.10;;;3.80;;
6638;SDS011;3355;52.882;8.430;2023-05-10T15:31:30;3.17;;;2.90;;